sensor_id;sensor_type;location;lat;lon;timestamp;P1;durP1;ratioP1;P2;durP2;ratioP2
75316;SDS011;63913;51.492;10.368;2023-08-01T00:01:31;1.33;;;0.90;;
75316;SDS011;63913;51.492;10.368;2023-08-01T00:03:57;4.20;;;1.10;;
75316;SDS011;63913;51.492;10.368;2023-08-01T00:06:22;2.47;;;0.90;;
75316;SDS011;63913;51.492;10.368;2023-08-01T00:08:50;1.17;;;0.93;;
75316;SDS011;63913;51.492;10.368;2023-08-01T00:11:15;1.23;;;0.95;;
75316;SDS011;63913;51.492;10.368;2023-08-01T00:13:41;1.58;;;1.13;;
75316;SDS011;63913;51.492;10.368;2023-08-01T00:16:08;1.95;;;1.25;;
75316;SDS011;63913;51.492;10.368;2023-08-01T00:18:34;1.08;;;0.88;;
75316;SDS011;63913;51.492;10.368;2023-08-01T00:20:59;1.42;;;0.90;;
75316;SDS011;63913;51.492;10.368;2023-08-01T00:23:25;1.77;;;1.65;;
75316;SDS011;63913;51.492;10.368;2023-08-01T00:25:50;3.03;;;1.58;;
75316;SDS011;63913;51.492;10.368;2023-08-01T00:28:23;1.50;;;0.82;;
75316;SDS011;63913;51.492;10.368;2023-08-01T00:30:48;1.25;;;1.00;;
75316;SDS011;63913;51.492;10.368;2023-08-01T00:33:14;1.08;;;0.90;;
75316;SDS011;63913;51.492;10.368;2023-08-01T00:35:40;1.35;;;0.98;;
75316;SDS011;63913;51.492;10.368;2023-08-01T00:38:05;1.48;;;0.82;;
75316;SDS011;63913;51.492;10.368;2023-08-01T00:40:31;1.05;;;0.93;;
75316;SDS011;63913;51.492;10.368;2023-08-01T00:42:57;1.42;;;1.20;;
75316;SDS011;63913;51.492;10.368;2023-08-01T00:45:24;1.38;;;1.00;;
75316;SDS011;63913;51.492;10.368;2023-08-01T00:47:54;1.13;;;0.93;;
75316;SDS011;63913;51.492;10.368;2023-08-01T00:50:19;1.48;;;1.02;;
75316;SDS011;63913;51.492;10.368;2023-08-01T00:52:48;0.95;;;0.90;;
75316;SDS011;63913;51.492;10.368;2023-08-01T00:55:16;1.60;;;0.90;;
75316;SDS011;63913;51.492;10.368;2023-08-01T00:57:43;1.92;;;1.10;;
75316;SDS011;63913;51.492;10.368;2023-08-01T01:00:08;0.90;;;0.80;;
75316;SDS011;63913;51.492;10.368;2023-08-01T01:02:38;1.50;;;0.85;;
75316;SDS011;63913;51.492;10.368;2023-08-01T01:05:04;1.48;;;1.02;;
75316;SDS011;63913;51.492;10.368;2023-08-01T01:07:30;0.88;;;0.73;;
75316;SDS011;63913;51.492;10.368;2023-08-01T01:09:57;0.82;;;0.82;;
75316;SDS011;63913;51.492;10.368;2023-08-01T01:12:23;1.38;;;0.93;;
75316;SDS011;63913;51.492;10.368;2023-08-01T01:14:48;1.70;;;0.80;;
75316;SDS011;63913;51.492;10.368;2023-08-01T01:17:14;0.77;;;0.60;;
75316;SDS011;63913;51.492;10.368;2023-08-01T01:19:41;0.70;;;0.70;;
75316;SDS011;63913;51.492;10.368;2023-08-01T01:22:06;1.30;;;0.82;;
75316;SDS011;63913;51.492;10.368;2023-08-01T01:24:34;2.08;;;1.05;;
75316;SDS011;63913;51.492;10.368;2023-08-01T01:27:01;1.95;;;0.80;;
75316;SDS011;63913;51.492;10.368;2023-08-01T01:29:29;0.70;;;0.70;;
75316;SDS011;63913;51.492;10.368;2023-08-01T01:31:57;1.23;;;0.77;;
75316;SDS011;63913;51.492;10.368;2023-08-01T01:34:26;0.70;;;0.70;;
75316;SDS011;63913;51.492;10.368;2023-08-01T01:36:52;0.88;;;0.60;;
75316;SDS011;63913;51.492;10.368;2023-08-01T01:39:18;1.05;;;0.77;;
75316;SDS011;63913;51.492;10.368;2023-08-01T01:41:43;0.90;;;0.77;;
75316;SDS011;63913;51.492;10.368;2023-08-01T01:44:08;2.40;;;0.80;;
75316;SDS011;63913;51.492;10.368;2023-08-01T01:46:35;0.60;;;0.60;;
75316;SDS011;63913;51.492;10.368;2023-08-01T01:49:00;0.90;;;0.82;;
75316;SDS011;63913;51.492;10.368;2023-08-01T01:51:26;1.75;;;1.00;;
75316;SDS011;63913;51.492;10.368;2023-08-01T01:53:52;0.50;;;0.50;;
75316;SDS011;63913;51.492;10.368;2023-08-01T01:56:18;0.60;;;0.60;;
75316;SDS011;63913;51.492;10.368;2023-08-01T01:58:43;0.70;;;0.70;;
75316;SDS011;63913;51.492;10.368;2023-08-01T02:01:09;1.13;;;0.80;;
75316;SDS011;63913;51.492;10.368;2023-08-01T02:03:34;0.90;;;0.60;;
75316;SDS011;63913;51.492;10.368;2023-08-01T02:06:01;1.55;;;0.75;;
75316;SDS011;63913;51.492;10.368;2023-08-01T02:08:28;0.70;;;0.70;;
75316;SDS011;63913;51.492;10.368;2023-08-01T02:10:54;1.13;;;0.60;;
75316;SDS011;63913;51.492;10.368;2023-08-01T02:13:23;1.00;;;0.60;;
75316;SDS011;63913;51.492;10.368;2023-08-01T02:15:49;0.85;;;0.60;;
75316;SDS011;63913;51.492;10.368;2023-08-01T02:18:14;2.58;;;0.57;;
75316;SDS011;63913;51.492;10.368;2023-08-01T02:20:39;1.45;;;0.57;;
75316;SDS011;63913;51.492;10.368;2023-08-01T02:23:05;0.40;;;0.40;;
75316;SDS011;63913;51.492;10.368;2023-08-01T02:25:30;0.63;;;0.40;;
75316;SDS011;63913;51.492;10.368;2023-08-01T02:27:56;0.70;;;0.50;;
75316;SDS011;63913;51.492;10.368;2023-08-01T02:30:21;2.65;;;0.70;;
75316;SDS011;63913;51.492;10.368;2023-08-01T02:32:46;0.50;;;0.50;;
75316;SDS011;63913;51.492;10.368;2023-08-01T02:35:12;0.32;;;0.32;;
75316;SDS011;63913;51.492;10.368;2023-08-01T02:37:37;0.30;;;0.30;;
75316;SDS011;63913;51.492;10.368;2023-08-01T02:40:03;0.55;;;0.50;;
75316;SDS011;63913;51.492;10.368;2023-08-01T02:42:32;0.55;;;0.50;;
75316;SDS011;63913;51.492;10.368;2023-08-01T02:44:58;1.45;;;0.50;;
75316;SDS011;63913;51.492;10.368;2023-08-01T02:47:23;1.15;;;0.65;;
75316;SDS011;63913;51.492;10.368;2023-08-01T02:49:49;0.60;;;0.60;;
75316;SDS011;63913;51.492;10.368;2023-08-01T02:52:14;1.80;;;0.80;;
75316;SDS011;63913;51.492;10.368;2023-08-01T02:54:39;0.60;;;0.60;;
75316;SDS011;63913;51.492;10.368;2023-08-01T02:57:05;0.82;;;0.43;;
75316;SDS011;63913;51.492;10.368;2023-08-01T02:59:31;0.57;;;0.32;;
75316;SDS011;63913;51.492;10.368;2023-08-01T03:01:58;2.00;;;0.52;;
75316;SDS011;63913;51.492;10.368;2023-08-01T03:04:24;0.95;;;0.40;;
75316;SDS011;63913;51.492;10.368;2023-08-01T03:06:49;0.28;;;0.28;;
75316;SDS011;63913;51.492;10.368;2023-08-01T03:09:15;0.28;;;0.22;;
75316;SDS011;63913;51.492;10.368;2023-08-01T03:11:41;0.57;;;0.40;;
75316;SDS011;63913;51.492;10.368;2023-08-01T03:14:06;1.08;;;0.60;;
75316;SDS011;63913;51.492;10.368;2023-08-01T03:16:32;0.43;;;0.40;;
75316;SDS011;63913;51.492;10.368;2023-08-01T03:18:57;0.50;;;0.45;;
75316;SDS011;63913;51.492;10.368;2023-08-01T03:21:24;0.52;;;0.40;;
75316;SDS011;63913;51.492;10.368;2023-08-01T03:23:51;1.02;;;0.60;;
75316;SDS011;63913;51.492;10.368;2023-08-01T03:26:17;0.40;;;0.40;;
75316;SDS011;63913;51.492;10.368;2023-08-01T03:28:43;0.22;;;0.20;;
75316;SDS011;63913;51.492;10.368;2023-08-01T03:31:08;0.10;;;0.10;;
75316;SDS011;63913;51.492;10.368;2023-08-01T03:33:34;0.45;;;0.45;;
75316;SDS011;63913;51.492;10.368;2023-08-01T03:36:00;0.43;;;0.40;;
75316;SDS011;63913;51.492;10.368;2023-08-01T03:38:26;0.50;;;0.50;;
75316;SDS011;63913;51.492;10.368;2023-08-01T03:40:51;0.75;;;0.35;;
75316;SDS011;63913;51.492;10.368;2023-08-01T03:43:17;0.52;;;0.50;;
75316;SDS011;63913;51.492;10.368;2023-08-01T03:45:42;0.77;;;0.40;;
75316;SDS011;63913;51.492;10.368;2023-08-01T03:48:07;0.30;;;0.30;;
75316;SDS011;63913;51.492;10.368;2023-08-01T03:50:33;0.30;;;0.30;;
75316;SDS011;63913;51.492;10.368;2023-08-01T03:52:58;1.55;;;0.55;;
75316;SDS011;63913;51.492;10.368;2023-08-01T03:55:23;2.47;;;0.45;;
75316;SDS011;63913;51.492;10.368;2023-08-01T03:57:49;1.27;;;0.30;;
75316;SDS011;63913;51.492;10.368;2023-08-01T04:00:14;0.32;;;0.20;;
75316;SDS011;63913;51.492;10.368;2023-08-01T04:02:43;0.30;;;0.30;;
75316;SDS011;63913;51.492;10.368;2023-08-01T04:05:08;0.52;;;0.30;;
75316;SDS011;63913;51.492;10.368;2023-08-01T04:07:34;1.33;;;0.35;;
75316;SDS011;63913;51.492;10.368;2023-08-01T04:10:01;0.20;;;0.20;;
75316;SDS011;63913;51.492;10.368;2023-08-01T04:12:27;0.03;;;0.00;;
75316;SDS011;63913;51.492;10.368;2023-08-01T04:14:53;0.25;;;0.25;;
75316;SDS011;63913;51.492;10.368;2023-08-01T04:17:18;1.23;;;0.47;;
75316;SDS011;63913;51.492;10.368;2023-08-01T04:19:44;1.25;;;0.13;;
75316;SDS011;63913;51.492;10.368;2023-08-01T04:22:09;0.10;;;0.10;;
75316;SDS011;63913;51.492;10.368;2023-08-01T04:24:35;0.17;;;0.10;;
75316;SDS011;63913;51.492;10.368;2023-08-01T04:27:00;0.20;;;0.20;;
75316;SDS011;63913;51.492;10.368;2023-08-01T04:29:26;0.10;;;0.10;;
75316;SDS011;63913;51.492;10.368;2023-08-01T04:31:51;0.20;;;0.20;;
75316;SDS011;63913;51.492;10.368;2023-08-01T04:34:17;0.20;;;0.20;;
75316;SDS011;63913;51.492;10.368;2023-08-01T04:36:42;0.25;;;0.10;;
75316;SDS011;63913;51.492;10.368;2023-08-01T04:39:07;0.00;;;0.00;;
75316;SDS011;63913;51.492;10.368;2023-08-01T04:41:33;0.38;;;0.20;;
75316;SDS011;63913;51.492;10.368;2023-08-01T04:43:58;0.65;;;0.05;;
75316;SDS011;63913;51.492;10.368;2023-08-01T04:46:23;0.70;;;0.15;;
75316;SDS011;63913;51.492;10.368;2023-08-01T04:48:49;0.30;;;0.17;;
75316;SDS011;63913;51.492;10.368;2023-08-01T04:51:14;0.10;;;0.10;;
75316;SDS011;63913;51.492;10.368;2023-08-01T04:53:40;0.35;;;0.28;;
75316;SDS011;63913;51.492;10.368;2023-08-01T04:56:05;0.20;;;0.20;;
75316;SDS011;63913;51.492;10.368;2023-08-01T04:58:30;0.03;;;0.03;;
75316;SDS011;63913;51.492;10.368;2023-08-01T05:00:56;0.20;;;0.20;;
75316;SDS011;63913;51.492;10.368;2023-08-01T05:03:21;0.20;;;0.20;;
75316;SDS011;63913;51.492;10.368;2023-08-01T05:05:46;0.20;;;0.00;;
75316;SDS011;63913;51.492;10.368;2023-08-01T05:08:12;0.20;;;0.20;;
75316;SDS011;63913;51.492;10.368;2023-08-01T05:10:37;0.30;;;0.10;;
75316;SDS011;63913;51.492;10.368;2023-08-01T05:13:02;0.28;;;0.22;;
75316;SDS011;63913;51.492;10.368;2023-08-01T05:15:28;1.25;;;0.22;;
75316;SDS011;63913;51.492;10.368;2023-08-01T05:17:53;0.38;;;0.10;;
75316;SDS011;63913;51.492;10.368;2023-08-01T05:20:19;1.45;;;0.10;;
75316;SDS011;63913;51.492;10.368;2023-08-01T05:22:45;0.32;;;0.10;;
75316;SDS011;63913;51.492;10.368;2023-08-01T05:25:10;0.20;;;0.10;;
75316;SDS011;63913;51.492;10.368;2023-08-01T05:27:35;0.28;;;0.10;;
75316;SDS011;63913;51.492;10.368;2023-08-01T05:30:01;0.20;;;0.20;;
75316;SDS011;63913;51.492;10.368;2023-08-01T05:32:26;2.22;;;0.70;;
75316;SDS011;63913;51.492;10.368;2023-08-01T05:34:51;1.10;;;0.13;;
75316;SDS011;63913;51.492;10.368;2023-08-01T05:37:17;1.02;;;0.20;;
75316;SDS011;63913;51.492;10.368;2023-08-01T05:39:42;0.85;;;0.10;;
75316;SDS011;63913;51.492;10.368;2023-08-01T05:42:08;0.25;;;0.20;;
75316;SDS011;63913;51.492;10.368;2023-08-01T05:44:34;0.22;;;0.22;;
75316;SDS011;63913;51.492;10.368;2023-08-01T05:47:00;0.57;;;0.20;;
75316;SDS011;63913;51.492;10.368;2023-08-01T05:49:25;0.30;;;0.10;;
75316;SDS011;63913;51.492;10.368;2023-08-01T05:51:50;0.10;;;0.10;;
75316;SDS011;63913;51.492;10.368;2023-08-01T05:54:16;0.50;;;0.20;;
75316;SDS011;63913;51.492;10.368;2023-08-01T05:56:41;0.30;;;0.30;;
75316;SDS011;63913;51.492;10.368;2023-08-01T05:59:07;0.13;;;0.13;;
75316;SDS011;63913;51.492;10.368;2023-08-01T06:01:32;0.47;;;0.13;;
75316;SDS011;63913;51.492;10.368;2023-08-01T06:03:59;0.82;;;0.22;;
75316;SDS011;63913;51.492;10.368;2023-08-01T06:06:24;0.82;;;0.20;;
75316;SDS011;63913;51.492;10.368;2023-08-01T06:08:50;0.20;;;0.20;;
75316;SDS011;63913;51.492;10.368;2023-08-01T06:11:16;0.20;;;0.20;;
75316;SDS011;63913;51.492;10.368;2023-08-01T06:13:42;0.68;;;0.20;;
75316;SDS011;63913;51.492;10.368;2023-08-01T06:16:07;0.10;;;0.10;;
75316;SDS011;63913;51.492;10.368;2023-08-01T06:18:33;0.95;;;0.25;;
75316;SDS011;63913;51.492;10.368;2023-08-01T06:20:58;0.25;;;0.25;;
75316;SDS011;63913;51.492;10.368;2023-08-01T06:23:24;0.15;;;0.10;;
75316;SDS011;63913;51.492;10.368;2023-08-01T06:25:49;0.50;;;0.20;;
75316;SDS011;63913;51.492;10.368;2023-08-01T06:28:14;1.13;;;0.40;;
75316;SDS011;63913;51.492;10.368;2023-08-01T06:30:40;0.20;;;0.15;;
75316;SDS011;63913;51.492;10.368;2023-08-01T06:33:05;0.10;;;0.10;;
75316;SDS011;63913;51.492;10.368;2023-08-01T06:35:31;0.22;;;0.05;;
75316;SDS011;63913;51.492;10.368;2023-08-01T06:37:56;0.13;;;0.08;;
75316;SDS011;63913;51.492;10.368;2023-08-01T06:40:22;0.20;;;0.10;;
75316;SDS011;63913;51.492;10.368;2023-08-01T06:42:47;0.20;;;0.20;;
75316;SDS011;63913;51.492;10.368;2023-08-01T06:45:12;0.00;;;0.00;;
75316;SDS011;63913;51.492;10.368;2023-08-01T06:47:38;0.13;;;0.10;;
75316;SDS011;63913;51.492;10.368;2023-08-01T06:50:03;0.00;;;0.00;;
75316;SDS011;63913;51.492;10.368;2023-08-01T06:52:30;0.75;;;0.32;;
75316;SDS011;63913;51.492;10.368;2023-08-01T06:54:55;2.40;;;0.30;;
75316;SDS011;63913;51.492;10.368;2023-08-01T06:57:26;0.20;;;0.17;;
75316;SDS011;63913;51.492;10.368;2023-08-01T06:59:51;0.38;;;0.38;;
75316;SDS011;63913;51.492;10.368;2023-08-01T07:02:17;0.22;;;0.17;;
75316;SDS011;63913;51.492;10.368;2023-08-01T07:04:42;0.05;;;0.05;;
75316;SDS011;63913;51.492;10.368;2023-08-01T07:07:08;0.10;;;0.10;;
75316;SDS011;63913;51.492;10.368;2023-08-01T07:09:34;0.10;;;0.10;;
75316;SDS011;63913;51.492;10.368;2023-08-01T07:12:00;1.95;;;0.30;;
75316;SDS011;63913;51.492;10.368;2023-08-01T07:14:26;0.75;;;0.10;;
75316;SDS011;63913;51.492;10.368;2023-08-01T07:16:51;0.63;;;0.10;;
75316;SDS011;63913;51.492;10.368;2023-08-01T07:19:18;0.22;;;0.10;;
75316;SDS011;63913;51.492;10.368;2023-08-01T07:21:43;0.10;;;0.10;;
75316;SDS011;63913;51.492;10.368;2023-08-01T07:24:11;0.13;;;0.10;;
75316;SDS011;63913;51.492;10.368;2023-08-01T07:26:38;0.50;;;0.20;;
75316;SDS011;63913;51.492;10.368;2023-08-01T07:29:04;0.28;;;0.28;;
75316;SDS011;63913;51.492;10.368;2023-08-01T07:31:29;0.30;;;0.30;;
75316;SDS011;63913;51.492;10.368;2023-08-01T07:33:55;0.63;;;0.32;;
75316;SDS011;63913;51.492;10.368;2023-08-01T07:36:21;0.40;;;0.40;;
75316;SDS011;63913;51.492;10.368;2023-08-01T07:38:47;0.40;;;0.40;;
75316;SDS011;63913;51.492;10.368;2023-08-01T07:41:12;0.57;;;0.47;;
75316;SDS011;63913;51.492;10.368;2023-08-01T07:43:37;0.98;;;0.30;;
75316;SDS011;63913;51.492;10.368;2023-08-01T07:46:03;0.88;;;0.88;;
75316;SDS011;63913;51.492;10.368;2023-08-01T07:48:28;0.85;;;0.60;;
75316;SDS011;63913;51.492;10.368;2023-08-01T07:50:54;0.95;;;0.50;;
75316;SDS011;63913;51.492;10.368;2023-08-01T07:53:19;3.55;;;0.90;;
75316;SDS011;63913;51.492;10.368;2023-08-01T07:55:45;0.90;;;0.90;;
75316;SDS011;63913;51.492;10.368;2023-08-01T07:58:10;1.05;;;0.93;;
75316;SDS011;63913;51.492;10.368;2023-08-01T08:00:36;1.40;;;1.20;;
75316;SDS011;63913;51.492;10.368;2023-08-01T08:03:01;1.60;;;1.10;;
75316;SDS011;63913;51.492;10.368;2023-08-01T08:05:26;2.00;;;1.17;;
75316;SDS011;63913;51.492;10.368;2023-08-01T08:07:52;2.65;;;1.25;;
75316;SDS011;63913;51.492;10.368;2023-08-01T08:10:17;1.67;;;1.50;;
75316;SDS011;63913;51.492;10.368;2023-08-01T08:12:43;2.70;;;1.52;;
75316;SDS011;63913;51.492;10.368;2023-08-01T08:15:08;3.28;;;1.92;;
75316;SDS011;63913;51.492;10.368;2023-08-01T08:17:34;2.25;;;1.90;;
75316;SDS011;63913;51.492;10.368;2023-08-01T08:19:59;3.42;;;2.38;;
75316;SDS011;63913;51.492;10.368;2023-08-01T08:22:24;3.22;;;2.05;;
75316;SDS011;63913;51.492;10.368;2023-08-01T08:24:50;3.03;;;2.10;;
75316;SDS011;63913;51.492;10.368;2023-08-01T08:27:15;2.28;;;2.00;;
75316;SDS011;63913;51.492;10.368;2023-08-01T08:29:41;2.75;;;2.10;;
75316;SDS011;63913;51.492;10.368;2023-08-01T08:32:06;4.20;;;1.90;;
75316;SDS011;63913;51.492;10.368;2023-08-01T08:34:32;3.60;;;1.90;;
75316;SDS011;63913;51.492;10.368;2023-08-01T08:36:57;3.15;;;2.45;;
75316;SDS011;63913;51.492;10.368;2023-08-01T08:39:23;2.83;;;2.30;;
75316;SDS011;63913;51.492;10.368;2023-08-01T08:41:50;3.30;;;2.58;;
75316;SDS011;63913;51.492;10.368;2023-08-01T08:44:20;4.68;;;2.30;;
75316;SDS011;63913;51.492;10.368;2023-08-01T08:46:52;4.00;;;2.53;;
75316;SDS011;63913;51.492;10.368;2023-08-01T08:49:23;4.45;;;2.75;;
75316;SDS011;63913;51.492;10.368;2023-08-01T08:51:51;4.30;;;2.75;;
75316;SDS011;63913;51.492;10.368;2023-08-01T08:54:18;3.88;;;2.40;;
75316;SDS011;63913;51.492;10.368;2023-08-01T08:56:44;4.05;;;2.72;;
75316;SDS011;63913;51.492;10.368;2023-08-01T08:59:10;7.95;;;3.00;;
75316;SDS011;63913;51.492;10.368;2023-08-01T09:01:36;7.13;;;3.00;;
75316;SDS011;63913;51.492;10.368;2023-08-01T09:04:08;5.82;;;2.72;;
75316;SDS011;63913;51.492;10.368;2023-08-01T09:06:52;5.72;;;3.67;;
75316;SDS011;63913;51.492;10.368;2023-08-01T09:09:23;4.57;;;2.60;;
75316;SDS011;63913;51.492;10.368;2023-08-01T09:11:52;5.68;;;3.33;;
75316;SDS011;63913;51.492;10.368;2023-08-01T09:14:18;4.30;;;2.65;;
75316;SDS011;63913;51.492;10.368;2023-08-01T09:16:45;3.65;;;2.67;;
75316;SDS011;63913;51.492;10.368;2023-08-01T09:19:16;5.13;;;3.42;;
75316;SDS011;63913;51.492;10.368;2023-08-01T09:21:42;4.75;;;3.22;;
75316;SDS011;63913;51.492;10.368;2023-08-01T09:24:11;7.50;;;3.72;;
75316;SDS011;63913;51.492;10.368;2023-08-01T09:26:41;4.05;;;2.90;;
75316;SDS011;63913;51.492;10.368;2023-08-01T09:29:07;4.38;;;2.90;;
75316;SDS011;63913;51.492;10.368;2023-08-01T09:31:34;4.57;;;2.83;;
75316;SDS011;63913;51.492;10.368;2023-08-01T09:34:01;5.95;;;3.60;;
75316;SDS011;63913;51.492;10.368;2023-08-01T09:36:32;6.18;;;3.70;;
75316;SDS011;63913;51.492;10.368;2023-08-01T09:38:58;6.18;;;3.47;;
75316;SDS011;63913;51.492;10.368;2023-08-01T09:41:25;6.65;;;3.45;;
75316;SDS011;63913;51.492;10.368;2023-08-01T09:43:50;5.28;;;3.15;;
75316;SDS011;63913;51.492;10.368;2023-08-01T09:46:18;5.50;;;3.53;;
75316;SDS011;63913;51.492;10.368;2023-08-01T09:48:44;5.82;;;3.70;;
75316;SDS011;63913;51.492;10.368;2023-08-01T09:51:11;5.55;;;3.80;;
75316;SDS011;63913;51.492;10.368;2023-08-01T09:53:50;7.05;;;4.25;;
75316;SDS011;63913;51.492;10.368;2023-08-01T09:56:22;6.10;;;4.10;;
75316;SDS011;63913;51.492;10.368;2023-08-01T09:58:50;5.32;;;3.63;;
75316;SDS011;63913;51.492;10.368;2023-08-01T10:01:23;6.15;;;3.55;;
75316;SDS011;63913;51.492;10.368;2023-08-01T10:03:50;5.65;;;3.65;;
75316;SDS011;63913;51.492;10.368;2023-08-01T10:06:20;6.85;;;3.83;;
75316;SDS011;63913;51.492;10.368;2023-08-01T10:08:48;5.95;;;3.85;;
75316;SDS011;63913;51.492;10.368;2023-08-01T10:11:16;6.22;;;4.07;;
75316;SDS011;63913;51.492;10.368;2023-08-01T10:13:45;5.93;;;4.00;;
75316;SDS011;63913;51.492;10.368;2023-08-01T10:16:11;7.85;;;4.10;;
75316;SDS011;63913;51.492;10.368;2023-08-01T10:18:37;8.02;;;4.28;;
75316;SDS011;63913;51.492;10.368;2023-08-01T10:21:07;5.72;;;4.43;;
75316;SDS011;63913;51.492;10.368;2023-08-01T10:23:40;6.88;;;4.63;;
75316;SDS011;63913;51.492;10.368;2023-08-01T10:26:07;7.10;;;4.35;;
75316;SDS011;63913;51.492;10.368;2023-08-01T10:28:35;6.28;;;3.95;;
75316;SDS011;63913;51.492;10.368;2023-08-01T10:31:08;8.23;;;4.25;;
75316;SDS011;63913;51.492;10.368;2023-08-01T10:33:36;6.03;;;4.32;;
75316;SDS011;63913;51.492;10.368;2023-08-01T10:36:12;6.60;;;4.15;;
75316;SDS011;63913;51.492;10.368;2023-08-01T10:39:00;6.10;;;4.15;;
75316;SDS011;63913;51.492;10.368;2023-08-01T10:44:08;8.45;;;4.05;;
75316;SDS011;63913;51.492;10.368;2023-08-01T10:46:54;6.28;;;4.32;;
75316;SDS011;63913;51.492;10.368;2023-08-01T10:49:32;6.15;;;3.58;;
75316;SDS011;63913;51.492;10.368;2023-08-01T10:51:58;6.57;;;4.40;;
75316;SDS011;63913;51.492;10.368;2023-08-01T10:54:25;5.70;;;4.15;;
75316;SDS011;63913;51.492;10.368;2023-08-01T10:56:52;7.05;;;4.10;;
75316;SDS011;63913;51.492;10.368;2023-08-01T10:59:18;6.70;;;3.90;;
75316;SDS011;63913;51.492;10.368;2023-08-01T11:01:45;5.22;;;3.35;;
75316;SDS011;63913;51.492;10.368;2023-08-01T11:04:14;4.45;;;3.28;;
75316;SDS011;63913;51.492;10.368;2023-08-01T11:06:47;5.38;;;3.28;;
75316;SDS011;63913;51.492;10.368;2023-08-01T11:09:14;4.70;;;3.53;;
75316;SDS011;63913;51.492;10.368;2023-08-01T11:11:41;6.53;;;3.60;;
75316;SDS011;63913;51.492;10.368;2023-08-01T11:14:07;5.15;;;3.60;;
75316;SDS011;63913;51.492;10.368;2023-08-01T11:16:32;5.05;;;3.13;;
75316;SDS011;63913;51.492;10.368;2023-08-01T11:18:58;5.07;;;2.90;;
75316;SDS011;63913;51.492;10.368;2023-08-01T11:21:24;5.57;;;3.20;;
75316;SDS011;63913;51.492;10.368;2023-08-01T11:23:51;3.70;;;2.80;;
75316;SDS011;63913;51.492;10.368;2023-08-01T11:26:17;7.97;;;2.88;;
75316;SDS011;63913;51.492;10.368;2023-08-01T11:28:42;9.10;;;3.20;;
75316;SDS011;63913;51.492;10.368;2023-08-01T11:31:11;6.10;;;3.20;;
75316;SDS011;63913;51.492;10.368;2023-08-01T11:33:40;7.60;;;3.67;;
75316;SDS011;63913;51.492;10.368;2023-08-01T11:36:05;5.05;;;3.33;;
75316;SDS011;63913;51.492;10.368;2023-08-01T11:38:32;6.22;;;3.30;;
75316;SDS011;63913;51.492;10.368;2023-08-01T11:41:04;6.75;;;3.25;;
75316;SDS011;63913;51.492;10.368;2023-08-01T11:43:40;5.88;;;3.22;;
75316;SDS011;63913;51.492;10.368;2023-08-01T11:46:06;6.80;;;3.40;;
75316;SDS011;63913;51.492;10.368;2023-08-01T11:48:32;4.32;;;3.00;;
75316;SDS011;63913;51.492;10.368;2023-08-01T11:50:58;6.28;;;3.63;;
75316;SDS011;63913;51.492;10.368;2023-08-01T11:53:27;3.58;;;2.67;;
75316;SDS011;63913;51.492;10.368;2023-08-01T11:55:54;6.32;;;3.05;;
75316;SDS011;63913;51.492;10.368;2023-08-01T11:58:54;5.10;;;2.70;;
75316;SDS011;63913;51.492;10.368;2023-08-01T12:01:14;4.80;;;2.70;;
75316;SDS011;63913;51.492;10.368;2023-08-01T12:03:47;4.07;;;2.40;;
75316;SDS011;63913;51.492;10.368;2023-08-01T12:06:17;4.18;;;2.30;;
75316;SDS011;63913;51.492;10.368;2023-08-01T12:08:45;3.30;;;2.65;;
75316;SDS011;63913;51.492;10.368;2023-08-01T12:14:06;3.40;;;2.30;;
75316;SDS011;63913;51.492;10.368;2023-08-01T12:16:40;2.50;;;1.88;;
75316;SDS011;63913;51.492;10.368;2023-08-01T12:19:08;3.90;;;2.40;;
75316;SDS011;63913;51.492;10.368;2023-08-01T12:21:34;3.35;;;2.25;;
75316;SDS011;63913;51.492;10.368;2023-08-01T12:24:01;4.18;;;2.40;;
75316;SDS011;63913;51.492;10.368;2023-08-01T12:26:27;3.28;;;2.40;;
75316;SDS011;63913;51.492;10.368;2023-08-01T12:28:55;2.72;;;2.30;;
75316;SDS011;63913;51.492;10.368;2023-08-01T12:31:21;3.03;;;2.25;;
75316;SDS011;63913;51.492;10.368;2023-08-01T12:33:47;3.05;;;2.20;;
75316;SDS011;63913;51.492;10.368;2023-08-01T12:36:13;2.47;;;1.70;;
75316;SDS011;63913;51.492;10.368;2023-08-01T12:38:39;3.10;;;2.20;;
75316;SDS011;63913;51.492;10.368;2023-08-01T12:41:04;2.92;;;2.17;;
75316;SDS011;63913;51.492;10.368;2023-08-01T12:43:30;3.85;;;2.35;;
75316;SDS011;63913;51.492;10.368;2023-08-01T12:45:56;2.55;;;1.80;;
75316;SDS011;63913;51.492;10.368;2023-08-01T12:48:23;3.15;;;2.10;;
75316;SDS011;63913;51.492;10.368;2023-08-01T12:50:49;2.97;;;2.13;;
75316;SDS011;63913;51.492;10.368;2023-08-01T12:53:15;2.45;;;1.80;;
75316;SDS011;63913;51.492;10.368;2023-08-01T12:55:44;3.72;;;1.77;;
75316;SDS011;63913;51.492;10.368;2023-08-01T12:58:11;3.22;;;1.70;;
75316;SDS011;63913;51.492;10.368;2023-08-01T13:00:36;3.92;;;2.13;;
75316;SDS011;63913;51.492;10.368;2023-08-01T13:03:02;3.67;;;1.98;;
75316;SDS011;63913;51.492;10.368;2023-08-01T13:05:28;3.15;;;1.90;;
75316;SDS011;63913;51.492;10.368;2023-08-01T13:07:54;4.07;;;2.13;;
75316;SDS011;63913;51.492;10.368;2023-08-01T13:10:19;2.78;;;1.65;;
75316;SDS011;63913;51.492;10.368;2023-08-01T13:12:44;2.65;;;1.83;;
75316;SDS011;63913;51.492;10.368;2023-08-01T13:15:10;3.97;;;2.00;;
75316;SDS011;63913;51.492;10.368;2023-08-01T13:17:35;2.78;;;2.28;;
75316;SDS011;63913;51.492;10.368;2023-08-01T13:20:01;2.35;;;1.80;;
75316;SDS011;63913;51.492;10.368;2023-08-01T13:22:26;2.70;;;1.92;;
75316;SDS011;63913;51.492;10.368;2023-08-01T13:24:51;3.35;;;1.48;;
75316;SDS011;63913;51.492;10.368;2023-08-01T13:27:17;2.08;;;1.45;;
75316;SDS011;63913;51.492;10.368;2023-08-01T13:29:42;2.63;;;1.40;;
75316;SDS011;63913;51.492;10.368;2023-08-01T13:32:08;3.05;;;1.73;;
75316;SDS011;63913;51.492;10.368;2023-08-01T13:34:33;3.28;;;1.63;;
75316;SDS011;63913;51.492;10.368;2023-08-01T13:36:58;1.40;;;1.30;;
75316;SDS011;63913;51.492;10.368;2023-08-01T13:39:24;2.70;;;1.40;;
75316;SDS011;63913;51.492;10.368;2023-08-01T13:41:49;4.68;;;2.40;;
75316;SDS011;63913;51.492;10.368;2023-08-01T13:44:15;2.92;;;1.48;;
75316;SDS011;63913;51.492;10.368;2023-08-01T13:46:40;1.42;;;1.23;;
75316;SDS011;63913;51.492;10.368;2023-08-01T13:49:07;2.47;;;1.60;;
75316;SDS011;63913;51.492;10.368;2023-08-01T13:51:33;2.58;;;1.63;;
75316;SDS011;63913;51.492;10.368;2023-08-01T13:53:59;2.33;;;1.70;;
75316;SDS011;63913;51.492;10.368;2023-08-01T13:56:25;3.38;;;1.85;;
75316;SDS011;63913;51.492;10.368;2023-08-01T13:58:51;3.47;;;1.83;;
75316;SDS011;63913;51.492;10.368;2023-08-01T14:01:16;0.93;;;0.80;;
75316;SDS011;63913;51.492;10.368;2023-08-01T14:03:43;1.80;;;1.00;;
75316;SDS011;63913;51.492;10.368;2023-08-01T14:06:10;1.48;;;0.70;;
75316;SDS011;63913;51.492;10.368;2023-08-01T14:08:37;1.23;;;0.77;;
75316;SDS011;63913;51.492;10.368;2023-08-01T14:11:04;0.90;;;0.75;;
75316;SDS011;63913;51.492;10.368;2023-08-01T14:13:31;0.82;;;0.82;;
75316;SDS011;63913;51.492;10.368;2023-08-01T14:15:56;1.20;;;1.10;;
75316;SDS011;63913;51.492;10.368;2023-08-01T14:18:22;2.35;;;1.05;;
75316;SDS011;63913;51.492;10.368;2023-08-01T14:20:47;1.15;;;1.08;;
75316;SDS011;63913;51.492;10.368;2023-08-01T14:23:13;2.58;;;1.40;;
75316;SDS011;63913;51.492;10.368;2023-08-01T14:25:38;2.40;;;1.27;;
75316;SDS011;63913;51.492;10.368;2023-08-01T14:28:04;2.05;;;1.25;;
75316;SDS011;63913;51.492;10.368;2023-08-01T14:30:30;1.42;;;1.23;;
75316;SDS011;63913;51.492;10.368;2023-08-01T14:33:05;2.50;;;1.30;;
75316;SDS011;63913;51.492;10.368;2023-08-01T14:35:33;1.88;;;1.30;;